Airport View

Enter AWOS ICAO identifier for current METAR.

ex. KFNL

KCGZ 261256Z AUTO 04004KT 10SM CLR 21/02 A2993 RMK AO2 SLP117 T02110022

26 Jun 2019 13:02

Frequency: 132.175

Phone: 520-836-3392

Other Area AWOS: KA39 - KCHD - KIWA - KFFZ

TAF AMD KIWA 261233Z 2613/2712 15007KT P6SM FEW090 SCT200 FM261500 18009KT P6SM FEW250 FM261900 22013G23KT P6SM SKC FM270300 28009KT P6SM SKC FM270800 10006KT P6SM SKC